createdAt,value
2023-01-18T00:01:32.636Z,2.4
2023-01-18T00:07:52.497Z,2.4
2023-01-18T00:14:15.718Z,4.3
2023-01-18T00:20:35.573Z,4.3
2023-01-18T00:26:58.602Z,6.7
2023-01-18T00:33:18.552Z,6.7
2023-01-18T00:39:41.651Z,2.8
2023-01-18T00:46:01.567Z,2.8
2023-01-18T00:52:24.522Z,7.5
2023-01-18T00:58:44.609Z,7.5
2023-01-18T01:05:07.572Z,3.2
2023-01-18T01:11:27.559Z,3.2
2023-01-18T01:17:50.699Z,3.5
2023-01-18T01:24:10.550Z,3.5
2023-01-18T01:30:33.642Z,4.1
2023-01-18T01:36:53.549Z,4.1
2023-01-18T01:43:16.709Z,5.9
2023-01-18T01:49:36.495Z,5.9
2023-01-18T01:55:59.612Z,4.6
2023-01-18T02:02:19.582Z,4.6
2023-01-18T02:08:42.547Z,5.2
2023-01-18T02:15:02.524Z,5.2
2023-01-18T02:21:25.615Z,5.1
2023-01-18T02:27:45.505Z,5.1
2023-01-18T02:34:08.628Z,3.8
2023-01-18T02:40:28.515Z,3.8
2023-01-18T02:46:51.590Z,3.7
2023-01-18T02:53:11.650Z,3.7
2023-01-18T02:59:34.721Z,2.9
2023-01-18T03:05:54.563Z,2.9
2023-01-18T03:12:17.794Z,3.8
2023-01-18T03:18:37.520Z,3.8
2023-01-18T03:25:00.637Z,3.7
2023-01-18T03:31:20.647Z,3.7
2023-01-18T03:37:43.701Z,4
2023-01-18T03:44:03.640Z,4
2023-01-18T03:50:26.693Z,4.3
2023-01-18T03:56:46.536Z,4.3
2023-01-18T04:03:09.584Z,3.5
2023-01-18T04:19:17.314Z,5.6
2023-01-18T04:25:37.566Z,5.6
2023-01-18T04:32:00.608Z,9.9
2023-01-18T04:38:20.529Z,9.9
2023-01-18T04:44:43.576Z,9.9
2023-01-18T04:51:03.507Z,9.9
2023-01-18T04:57:26.646Z,6.1
2023-01-18T05:03:46.514Z,6.1
2023-01-18T05:10:09.586Z,8.1
2023-01-18T05:16:29.684Z,8.1
2023-01-18T05:22:52.497Z,3.9
2023-01-18T05:29:12.708Z,3.9
2023-01-18T05:35:35.606Z,5.2
2023-01-18T05:41:55.598Z,5.2
2023-01-18T05:48:18.605Z,5.4
2023-01-18T05:54:38.548Z,5.4
2023-01-18T06:01:01.757Z,3.2
2023-01-18T06:07:21.547Z,3.2
2023-01-18T06:13:44.566Z,3.4
2023-01-18T06:20:04.526Z,3.4
2023-01-18T06:26:27.564Z,7
2023-01-18T06:32:47.586Z,7
2023-01-18T06:39:10.651Z,4.6
2023-01-18T06:45:30.647Z,4.6
2023-01-18T06:51:53.642Z,8
2023-01-18T06:58:13.613Z,8
2023-01-18T07:04:36.663Z,7.1
2023-01-18T07:10:56.615Z,7.1
2023-01-18T07:17:19.508Z,6.2
2023-01-18T07:23:39.596Z,6.2
2023-01-18T07:30:02.687Z,6.6
2023-01-18T07:36:22.631Z,6.6
2023-01-18T07:42:45.585Z,12.8
2023-01-18T07:49:05.609Z,12.8
2023-01-18T07:55:28.629Z,10.9
2023-01-18T08:01:48.601Z,10.9
2023-01-18T08:08:11.734Z,8.4
2023-01-18T08:14:31.545Z,8.4
2023-01-18T08:20:55.268Z,6.9
2023-01-18T08:27:14.637Z,6.9
2023-01-18T08:33:37.743Z,7.7
2023-01-18T08:39:57.538Z,7.7
2023-01-18T08:46:20.702Z,7.2
2023-01-18T08:52:40.627Z,7.2
2023-01-18T08:59:04.137Z,4.3
2023-01-18T09:05:24.647Z,4.3
2023-01-18T09:11:47.612Z,5.8
2023-01-18T09:34:13.147Z,16.9
2023-01-18T09:40:18.492Z,16.9
2023-01-18T09:46:41.579Z,16.9
2023-01-18T09:53:01.864Z,16.9
2023-01-18T09:59:24.844Z,12.4
2023-01-18T10:05:44.687Z,12.4
2023-01-18T10:12:07.550Z,10.7
2023-01-18T10:18:27.530Z,10.7
2023-01-18T10:24:50.704Z,9.2
2023-01-18T10:31:10.573Z,9.2
2023-01-18T10:37:33.581Z,7.8
2023-01-18T10:43:53.584Z,7.8
2023-01-18T10:50:16.598Z,7.6
2023-01-18T10:56:36.678Z,7.6
2023-01-18T11:02:59.801Z,9.9
2023-01-18T11:09:19.795Z,9.9
2023-01-18T11:15:42.690Z,8.1
2023-01-18T11:22:02.868Z,8.1
2023-01-18T11:28:25.671Z,8.9
2023-01-18T11:34:45.503Z,8.9
2023-01-18T11:41:08.789Z,9.9
2023-01-18T11:47:28.540Z,9.9
2023-01-18T11:53:51.531Z,6.7
2023-01-18T12:00:11.557Z,6.7
2023-01-18T12:06:34.526Z,8.4
2023-01-18T12:12:54.683Z,8.4
2023-01-18T12:19:17.636Z,5.3
2023-01-18T12:25:37.684Z,5.3
2023-01-18T12:32:00.639Z,8.3
2023-01-18T12:38:20.512Z,8.3
2023-01-18T12:44:43.699Z,14.4
2023-01-18T12:51:04.016Z,14.4
2023-01-18T12:57:26.938Z,2.9
2023-01-18T13:03:47.888Z,2.9
2023-01-18T13:10:10.584Z,4.5
2023-01-18T13:16:30.761Z,4.5
2023-01-18T13:22:53.613Z,2.6
2023-01-18T13:29:14.301Z,2.6
2023-01-18T13:35:37.643Z,4.6
2023-01-18T13:41:57.638Z,4.6
2023-01-18T13:48:20.686Z,3.4
2023-01-18T13:54:40.558Z,3.4
2023-01-18T14:01:03.894Z,2.1
2023-01-18T14:07:23.604Z,2.1
2023-01-18T14:29:35.555Z,2.6
2023-01-18T14:35:55.576Z,2.6
2023-01-18T14:42:18.525Z,2.6
2023-01-18T14:48:38.558Z,2.6
2023-01-18T14:55:01.597Z,2.1
2023-01-18T15:01:21.588Z,2.1
2023-01-18T15:07:44.697Z,2
2023-01-18T15:14:04.668Z,2
2023-01-18T15:20:27.599Z,1.2
2023-01-18T15:26:47.589Z,1.2
2023-01-18T15:33:10.687Z,2.3
2023-01-18T15:39:30.789Z,2.3
2023-01-18T15:45:53.702Z,1.5
2023-01-18T15:52:13.522Z,1.5
2023-01-18T15:58:36.731Z,2.6
2023-01-18T16:04:56.576Z,2.6
2023-01-18T16:11:19.477Z,2.4
2023-01-18T16:17:39.577Z,2.4
2023-01-18T16:24:02.824Z,2.7
2023-01-18T16:30:22.731Z,2.7
2023-01-18T16:36:45.707Z,2
2023-01-18T16:43:05.613Z,2
2023-01-18T16:49:28.697Z,2.3
2023-01-18T16:55:48.595Z,2.3
2023-01-18T17:02:11.685Z,3.6
2023-01-18T17:08:31.531Z,3.6
2023-01-18T17:14:54.636Z,2.9
2023-01-18T17:21:14.621Z,2.9
2023-01-18T17:27:37.515Z,2.3
2023-01-18T17:33:57.519Z,2.3
2023-01-18T17:40:28.217Z,2.2
2023-01-18T17:46:40.701Z,2.2
2023-01-18T17:53:03.612Z,4.6
2023-01-18T17:59:23.519Z,4.6
2023-01-18T18:05:46.525Z,3.5
2023-01-18T18:12:06.539Z,3.5
2023-01-18T18:18:29.629Z,2.9
2023-01-18T18:24:49.739Z,2.9
2023-01-18T18:31:12.718Z,2.8
2023-01-18T18:37:32.660Z,2.8
2023-01-18T18:43:55.575Z,2
2023-01-18T18:50:15.635Z,2
2023-01-18T18:56:38.563Z,4.5
2023-01-18T19:02:58.750Z,4.5
2023-01-18T19:09:21.528Z,3
2023-01-18T19:34:26.541Z,3.2
2023-01-18T19:40:46.485Z,3.2
2023-01-18T19:47:09.524Z,2.9
2023-01-18T19:53:29.636Z,2.9
2023-01-18T19:59:52.545Z,3.7
2023-01-18T20:06:12.741Z,3.7
2023-01-18T20:12:35.741Z,7.4
2023-01-18T20:18:55.639Z,7.4
2023-01-18T20:25:18.590Z,5.2
2023-01-18T20:31:38.680Z,5.2
2023-01-18T20:38:01.554Z,6
2023-01-18T20:44:21.679Z,6
2023-01-18T20:50:44.699Z,2.7
2023-01-18T20:57:04.581Z,2.7
2023-01-18T21:03:27.653Z,3.5
2023-01-18T21:09:47.653Z,3.5
2023-01-18T21:16:10.604Z,3.7
2023-01-18T21:22:30.748Z,3.7
2023-01-18T21:28:53.578Z,3.2
2023-01-18T21:35:13.492Z,3.2
2023-01-18T21:41:36.575Z,3.7
2023-01-18T21:47:56.560Z,3.7
2023-01-18T21:54:19.691Z,3.2
2023-01-18T22:00:39.579Z,3.2
2023-01-18T22:07:02.614Z,2.1
2023-01-18T22:13:22.579Z,2.1
2023-01-18T22:19:45.621Z,2.2
2023-01-18T22:26:05.582Z,2.2
2023-01-18T22:32:28.535Z,2.4
2023-01-18T22:38:48.483Z,2.4
2023-01-18T22:45:11.536Z,2.6
2023-01-18T22:51:31.462Z,2.6
2023-01-18T22:57:54.551Z,3
2023-01-18T23:22:09.512Z,7.1
2023-01-18T23:28:29.551Z,7.1
2023-01-18T23:34:52.589Z,7.1
2023-01-18T23:41:12.598Z,7.1
2023-01-18T23:47:35.563Z,2.4
2023-01-18T23:53:55.522Z,2.4
